sensor_id;sensor_type;location;lat;lon;timestamp;pressure;altitude;pressure_sealevel;temperature;humidity
41706;BME280;27385;51.096;17.190;2023-04-02T00:00:16;99397.10;;;6.67;96.99
41706;BME280;27385;51.096;17.190;2023-04-02T00:03:08;99401.17;;;6.62;96.84
41706;BME280;27385;51.096;17.190;2023-04-02T00:05:43;99399.62;;;6.58;96.86
41706;BME280;27385;51.096;17.190;2023-04-02T00:08:26;99403.87;;;6.49;96.84
41706;BME280;27385;51.096;17.190;2023-04-02T00:10:59;99405.68;;;6.44;97.23
41706;BME280;27385;51.096;17.190;2023-04-02T00:13:34;99405.96;;;6.43;97.18
41706;BME280;27385;51.096;17.190;2023-04-02T00:16:10;99412.45;;;6.42;97.19
41706;BME280;27385;51.096;17.190;2023-04-02T00:18:45;99414.38;;;6.38;97.20
41706;BME280;27385;51.096;17.190;2023-04-02T00:21:20;99416.81;;;6.37;97.42
41706;BME280;27385;51.096;17.190;2023-04-02T00:23:54;99417.10;;;6.34;97.19
41706;BME280;27385;51.096;17.190;2023-04-02T00:26:31;99421.70;;;6.30;97.26
41706;BME280;27385;51.096;17.190;2023-04-02T00:29:03;99429.27;;;6.27;97.22
41706;BME280;27385;51.096;17.190;2023-04-02T00:31:36;99433.34;;;6.21;97.02
41706;BME280;27385;51.096;17.190;2023-04-02T00:34:13;99438.92;;;6.19;96.92
41706;BME280;27385;51.096;17.190;2023-04-02T00:36:47;99443.17;;;6.18;97.07
41706;BME280;27385;51.096;17.190;2023-04-02T00:39:22;99443.52;;;6.14;96.96
41706;BME280;27385;51.096;17.190;2023-04-02T00:41:56;99442.77;;;6.11;97.17
41706;BME280;27385;51.096;17.190;2023-04-02T00:44:35;99449.73;;;6.08;96.94
41706;BME280;27385;51.096;17.190;2023-04-02T00:47:15;99452.41;;;6.02;96.78
41706;BME280;27385;51.096;17.190;2023-04-02T00:49:50;99455.48;;;5.92;96.78
41706;BME280;27385;51.096;17.190;2023-04-02T00:52:26;99456.45;;;5.86;96.92
41706;BME280;27385;51.096;17.190;2023-04-02T00:55:05;99454.87;;;5.80;96.96
41706;BME280;27385;51.096;17.190;2023-04-02T00:57:41;99457.30;;;5.74;97.07
41706;BME280;27385;51.096;17.190;2023-04-02T01:00:21;99463.58;;;5.72;97.06
41706;BME280;27385;51.096;17.190;2023-04-02T01:03:26;99469.59;;;5.66;96.96
41706;BME280;27385;51.096;17.190;2023-04-02T01:06:01;99471.66;;;5.59;96.92
41706;BME280;27385;51.096;17.190;2023-04-02T01:09:02;99472.66;;;5.53;96.94
41706;BME280;27385;51.096;17.190;2023-04-02T01:11:50;99478.96;;;5.50;97.33
41706;BME280;27385;51.096;17.190;2023-04-02T01:14:36;99481.48;;;5.48;97.31
41706;BME280;27385;51.096;17.190;2023-04-02T01:17:18;99486.26;;;5.44;97.25
41706;BME280;27385;51.096;17.190;2023-04-02T01:20:37;99489.54;;;5.41;97.31
41706;BME280;27385;51.096;17.190;2023-04-02T01:23:14;99493.05;;;5.37;97.34
41706;BME280;27385;51.096;17.190;2023-04-02T01:25:49;99495.00;;;5.33;97.29
41706;BME280;27385;51.096;17.190;2023-04-02T01:28:27;99500.75;;;5.24;96.99
41706;BME280;27385;51.096;17.190;2023-04-02T01:31:02;99504.16;;;5.18;97.09
41706;BME280;27385;51.096;17.190;2023-04-02T01:33:35;99504.45;;;5.15;97.25
41706;BME280;27385;51.096;17.190;2023-04-02T01:36:13;99507.50;;;5.14;97.42
41706;BME280;27385;51.096;17.190;2023-04-02T01:38:49;99507.83;;;5.12;97.16
41706;BME280;27385;51.096;17.190;2023-04-02T01:41:28;99514.91;;;5.07;96.94
41706;BME280;27385;51.096;17.190;2023-04-02T01:44:03;99519.06;;;4.99;96.76
41706;BME280;27385;51.096;17.190;2023-04-02T01:46:40;99528.09;;;4.94;97.02
41706;BME280;27385;51.096;17.190;2023-04-02T01:49:15;99532.16;;;4.87;96.89
41706;BME280;27385;51.096;17.190;2023-04-02T01:51:51;99531.55;;;4.85;97.11
41706;BME280;27385;51.096;17.190;2023-04-02T01:54:25;99533.90;;;4.81;97.10
41706;BME280;27385;51.096;17.190;2023-04-02T01:56:57;99539.40;;;4.80;97.19
41706;BME280;27385;51.096;17.190;2023-04-02T01:59:29;99542.36;;;4.77;97.21
41706;BME280;27385;51.096;17.190;2023-04-02T02:02:02;99543.88;;;4.77;97.28
41706;BME280;27385;51.096;17.190;2023-04-02T02:04:34;99544.27;;;4.75;97.33
41706;BME280;27385;51.096;17.190;2023-04-02T02:07:05;99546.86;;;4.72;97.34
41706;BME280;27385;51.096;17.190;2023-04-02T02:09:43;99549.88;;;4.70;97.31
41706;BME280;27385;51.096;17.190;2023-04-02T02:12:15;99548.04;;;4.66;97.13
41706;BME280;27385;51.096;17.190;2023-04-02T02:14:49;99551.92;;;4.66;97.23
41706;BME280;27385;51.096;17.190;2023-04-02T02:17:25;99555.31;;;4.62;96.97
41706;BME280;27385;51.096;17.190;2023-04-02T02:20:18;99562.98;;;4.60;97.09
41706;BME280;27385;51.096;17.190;2023-04-02T02:22:51;99567.47;;;4.60;97.08
41706;BME280;27385;51.096;17.190;2023-04-02T02:25:25;99572.35;;;4.60;97.12
41706;BME280;27385;51.096;17.190;2023-04-02T02:28:00;99574.56;;;4.61;97.01
41706;BME280;27385;51.096;17.190;2023-04-02T02:30:33;99576.72;;;4.62;97.30
41706;BME280;27385;51.096;17.190;2023-04-02T02:33:09;99580.68;;;4.62;97.10
41706;BME280;27385;51.096;17.190;2023-04-02T02:35:47;99584.14;;;4.58;96.96
41706;BME280;27385;51.096;17.190;2023-04-02T02:38:40;99587.23;;;4.58;96.92
41706;BME280;27385;51.096;17.190;2023-04-02T02:41:18;99595.86;;;4.57;96.92
41706;BME280;27385;51.096;17.190;2023-04-02T02:43:56;99598.14;;;4.53;96.47
41706;BME280;27385;51.096;17.190;2023-04-02T02:46:29;99602.02;;;4.49;96.42
41706;BME280;27385;51.096;17.190;2023-04-02T02:49:03;99603.40;;;4.46;96.59
41706;BME280;27385;51.096;17.190;2023-04-02T02:51:43;99608.44;;;4.47;96.65
41706;BME280;27385;51.096;17.190;2023-04-02T02:54:18;99610.13;;;4.48;96.83
41706;BME280;27385;51.096;17.190;2023-04-02T02:56:52;99617.86;;;4.48;96.85
41706;BME280;27385;51.096;17.190;2023-04-02T02:59:25;99618.12;;;4.43;96.33
41706;BME280;27385;51.096;17.190;2023-04-02T03:01:58;99623.11;;;4.37;96.47
41706;BME280;27385;51.096;17.190;2023-04-02T03:04:30;99627.30;;;4.33;96.61
41706;BME280;27385;51.096;17.190;2023-04-02T03:07:04;99632.70;;;4.27;96.37
41706;BME280;27385;51.096;17.190;2023-04-02T03:09:43;99638.72;;;4.24;96.52
41706;BME280;27385;51.096;17.190;2023-04-02T03:12:31;99649.69;;;4.20;96.43
41706;BME280;27385;51.096;17.190;2023-04-02T03:15:11;99651.92;;;4.15;96.26
41706;BME280;27385;51.096;17.190;2023-04-02T03:17:46;99653.27;;;4.06;96.06
41706;BME280;27385;51.096;17.190;2023-04-02T03:20:23;99657.85;;;4.04;96.47
41706;BME280;27385;51.096;17.190;2023-04-02T03:23:01;99667.39;;;4.02;96.33
41706;BME280;27385;51.096;17.190;2023-04-02T03:25:38;99662.78;;;3.98;96.36
41706;BME280;27385;51.096;17.190;2023-04-02T03:28:15;99669.67;;;3.93;96.24
41706;BME280;27385;51.096;17.190;2023-04-02T03:30:50;99675.77;;;3.90;96.56
41706;BME280;27385;51.096;17.190;2023-04-02T03:33:25;99679.73;;;3.92;96.90
41706;BME280;27385;51.096;17.190;2023-04-02T03:36:01;99685.86;;;3.95;96.90
41706;BME280;27385;51.096;17.190;2023-04-02T03:38:35;99689.83;;;3.88;96.31
41706;BME280;27385;51.096;17.190;2023-04-02T03:41:16;99697.04;;;3.84;96.53
41706;BME280;27385;51.096;17.190;2023-04-02T03:43:50;99699.53;;;3.81;96.30
41706;BME280;27385;51.096;17.190;2023-04-02T03:46:28;99708.01;;;3.80;96.25
41706;BME280;27385;51.096;17.190;2023-04-02T03:49:03;99713.99;;;3.78;96.16
41706;BME280;27385;51.096;17.190;2023-04-02T03:51:38;99716.65;;;3.74;95.96
41706;BME280;27385;51.096;17.190;2023-04-02T03:54:14;99722.65;;;3.67;95.62
41706;BME280;27385;51.096;17.190;2023-04-02T03:56:46;99721.79;;;3.59;95.69
41706;BME280;27385;51.096;17.190;2023-04-02T03:59:27;99729.73;;;3.56;95.73
41706;BME280;27385;51.096;17.190;2023-04-02T04:02:08;99735.93;;;3.52;95.71
41706;BME280;27385;51.096;17.190;2023-04-02T04:04:40;99740.76;;;3.48;95.88
41706;BME280;27385;51.096;17.190;2023-04-02T04:07:18;99751.07;;;3.46;95.99
41706;BME280;27385;51.096;17.190;2023-04-02T04:09:51;99749.53;;;3.48;96.15
41706;BME280;27385;51.096;17.190;2023-04-02T04:12:27;99758.15;;;3.47;95.94
41706;BME280;27385;51.096;17.190;2023-04-02T04:15:03;99762.02;;;3.44;96.11
41706;BME280;27385;51.096;17.190;2023-04-02T04:17:43;99767.41;;;3.43;96.30
41706;BME280;27385;51.096;17.190;2023-04-02T04:20:22;99772.20;;;3.44;96.48
41706;BME280;27385;51.096;17.190;2023-04-02T04:22:54;99778.23;;;3.43;96.20
41706;BME280;27385;51.096;17.190;2023-04-02T04:25:28;99780.21;;;3.40;96.18
41706;BME280;27385;51.096;17.190;2023-04-02T04:28:09;99785.14;;;3.36;96.04
41706;BME280;27385;51.096;17.190;2023-04-02T04:30:51;99791.98;;;3.32;95.95
41706;BME280;27385;51.096;17.190;2023-04-02T04:33:25;99799.16;;;3.28;95.97
41706;BME280;27385;51.096;17.190;2023-04-02T04:35:59;99802.36;;;3.27;96.00
41706;BME280;27385;51.096;17.190;2023-04-02T04:38:32;99805.42;;;3.24;95.99
41706;BME280;27385;51.096;17.190;2023-04-02T04:41:14;99807.20;;;3.21;95.84
41706;BME280;27385;51.096;17.190;2023-04-02T04:43:48;99810.78;;;3.20;96.03
41706;BME280;27385;51.096;17.190;2023-04-02T04:46:29;99815.53;;;3.21;96.23
41706;BME280;27385;51.096;17.190;2023-04-02T04:49:09;99820.02;;;3.24;96.28
41706;BME280;27385;51.096;17.190;2023-04-02T04:51:45;99822.67;;;3.25;96.31
41706;BME280;27385;51.096;17.190;2023-04-02T04:54:18;99825.44;;;3.25;96.22
41706;BME280;27385;51.096;17.190;2023-04-02T04:56:53;99830.06;;;3.28;96.40
41706;BME280;27385;51.096;17.190;2023-04-02T04:59:28;99836.77;;;3.31;96.48
41706;BME280;27385;51.096;17.190;2023-04-02T05:02:05;99841.90;;;3.31;96.53
41706;BME280;27385;51.096;17.190;2023-04-02T05:04:39;99847.59;;;3.27;96.57
41706;BME280;27385;51.096;17.190;2023-04-02T05:07:14;99856.13;;;3.26;96.82
41706;BME280;27385;51.096;17.190;2023-04-02T05:09:54;99861.52;;;3.26;96.93
41706;BME280;27385;51.096;17.190;2023-04-02T05:12:33;99864.66;;;3.28;97.09
41706;BME280;27385;51.096;17.190;2023-04-02T05:15:12;99865.35;;;3.29;97.33
41706;BME280;27385;51.096;17.190;2023-04-02T05:17:49;99873.09;;;3.32;97.40
41706;BME280;27385;51.096;17.190;2023-04-02T05:20:26;99875.52;;;3.35;97.68
41706;BME280;27385;51.096;17.190;2023-04-02T05:23:03;99883.14;;;3.41;97.71
41706;BME280;27385;51.096;17.190;2023-04-02T05:25:38;99885.52;;;3.41;97.63
41706;BME280;27385;51.096;17.190;2023-04-02T05:28:24;99893.46;;;3.41;97.47
41706;BME280;27385;51.096;17.190;2023-04-02T05:31:00;99897.55;;;3.42;97.25
41706;BME280;27385;51.096;17.190;2023-04-02T05:33:33;99899.14;;;3.39;97.16
41706;BME280;27385;51.096;17.190;2023-04-02T05:36:06;99901.27;;;3.36;97.02
41706;BME280;27385;51.096;17.190;2023-04-02T05:38:44;99901.70;;;3.40;97.12
41706;BME280;27385;51.096;17.190;2023-04-02T05:41:22;99906.81;;;3.43;97.05
41706;BME280;27385;51.096;17.190;2023-04-02T05:44:02;99906.46;;;3.44;97.09
41706;BME280;27385;51.096;17.190;2023-04-02T05:46:45;99911.14;;;3.43;96.97
41706;BME280;27385;51.096;17.190;2023-04-02T05:49:22;99911.31;;;3.40;96.94
41706;BME280;27385;51.096;17.190;2023-04-02T05:51:57;99911.88;;;3.39;96.79
41706;BME280;27385;51.096;17.190;2023-04-02T05:54:33;99919.92;;;3.42;96.95
41706;BME280;27385;51.096;17.190;2023-04-02T05:57:11;99924.77;;;3.44;96.70
41706;BME280;27385;51.096;17.190;2023-04-02T05:59:48;99934.69;;;3.44;96.62
41706;BME280;27385;51.096;17.190;2023-04-02T06:02:23;99936.17;;;3.44;96.66
41706;BME280;27385;51.096;17.190;2023-04-02T06:05:01;99937.03;;;3.42;96.15
41706;BME280;27385;51.096;17.190;2023-04-02T06:07:42;99941.65;;;3.43;96.29
41706;BME280;27385;51.096;17.190;2023-04-02T06:10:18;99948.48;;;3.45;96.41
41706;BME280;27385;51.096;17.190;2023-04-02T06:12:54;99950.20;;;3.45;96.55
41706;BME280;27385;51.096;17.190;2023-04-02T06:15:26;99955.97;;;3.45;96.23
41706;BME280;27385;51.096;17.190;2023-04-02T06:18:04;99953.76;;;3.45;96.24
41706;BME280;27385;51.096;17.190;2023-04-02T06:20:35;99959.77;;;3.46;96.15
41706;BME280;27385;51.096;17.190;2023-04-02T06:23:08;99967.53;;;3.45;96.03
41706;BME280;27385;51.096;17.190;2023-04-02T06:25:43;99968.14;;;3.44;95.66
41706;BME280;27385;51.096;17.190;2023-04-02T06:28:19;99975.88;;;3.43;95.76
41706;BME280;27385;51.096;17.190;2023-04-02T06:30:53;99977.86;;;3.43;95.85
41706;BME280;27385;51.096;17.190;2023-04-02T06:33:26;99983.70;;;3.42;95.98
41706;BME280;27385;51.096;17.190;2023-04-02T06:35:58;99985.88;;;3.43;96.12
41706;BME280;27385;51.096;17.190;2023-04-02T06:38:31;99991.28;;;3.45;96.05
41706;BME280;27385;51.096;17.190;2023-04-02T06:41:09;99997.54;;;3.44;95.65
41706;BME280;27385;51.096;17.190;2023-04-02T06:43:45;100001.78;;;3.44;95.67
41706;BME280;27385;51.096;17.190;2023-04-02T06:46:20;99999.77;;;3.43;95.51
41706;BME280;27385;51.096;17.190;2023-04-02T06:48:58;100007.06;;;3.44;95.54
41706;BME280;27385;51.096;17.190;2023-04-02T06:51:32;100009.73;;;3.44;95.68
41706;BME280;27385;51.096;17.190;2023-04-02T06:54:06;100014.89;;;3.46;95.93
41706;BME280;27385;51.096;17.190;2023-04-02T06:56:44;100020.03;;;3.48;95.88
41706;BME280;27385;51.096;17.190;2023-04-02T06:59:16;100024.84;;;3.49;95.63
41706;BME280;27385;51.096;17.190;2023-04-02T07:01:51;100032.15;;;3.50;95.69
41706;BME280;27385;51.096;17.190;2023-04-02T07:04:23;100035.23;;;3.50;95.31
41706;BME280;27385;51.096;17.190;2023-04-02T07:06:54;100041.47;;;3.49;95.27
41706;BME280;27385;51.096;17.190;2023-04-02T07:09:25;100046.89;;;3.50;95.22
41706;BME280;27385;51.096;17.190;2023-04-02T07:11:56;100048.30;;;3.50;95.27
41706;BME280;27385;51.096;17.190;2023-04-02T07:14:27;100054.28;;;3.53;95.43
41706;BME280;27385;51.096;17.190;2023-04-02T07:16:58;100054.13;;;3.56;95.30
41706;BME280;27385;51.096;17.190;2023-04-02T07:19:29;100058.33;;;3.61;95.35
41706;BME280;27385;51.096;17.190;2023-04-02T07:22:00;100062.81;;;3.61;94.60
41706;BME280;27385;51.096;17.190;2023-04-02T07:24:31;100066.96;;;3.60;94.01
41706;BME280;27385;51.096;17.190;2023-04-02T07:27:02;100072.58;;;3.62;94.60
41706;BME280;27385;51.096;17.190;2023-04-02T07:29:33;100076.27;;;3.62;94.15
41706;BME280;27385;51.096;17.190;2023-04-02T07:32:06;100079.50;;;3.62;93.95
41706;BME280;27385;51.096;17.190;2023-04-02T07:34:37;100083.36;;;3.63;93.81
41706;BME280;27385;51.096;17.190;2023-04-02T07:37:10;100083.13;;;3.62;93.70
41706;BME280;27385;51.096;17.190;2023-04-02T07:39:42;100089.06;;;3.65;93.74
41706;BME280;27385;51.096;17.190;2023-04-02T07:42:13;100087.48;;;3.65;93.73
41706;BME280;27385;51.096;17.190;2023-04-02T07:44:44;100092.21;;;3.68;93.85
41706;BME280;27385;51.096;17.190;2023-04-02T07:47:15;100094.73;;;3.68;93.58
41706;BME280;27385;51.096;17.190;2023-04-02T07:49:46;100094.32;;;3.66;93.15
41706;BME280;27385;51.096;17.190;2023-04-02T07:52:17;100092.83;;;3.62;93.24
41706;BME280;27385;51.096;17.190;2023-04-02T07:54:49;100100.70;;;3.63;93.46
41706;BME280;27385;51.096;17.190;2023-04-02T07:57:20;100105.95;;;3.64;93.67
41706;BME280;27385;51.096;17.190;2023-04-02T07:59:52;100108.07;;;3.64;93.51
41706;BME280;27385;51.096;17.190;2023-04-02T08:02:24;100116.02;;;3.65;93.20
41706;BME280;27385;51.096;17.190;2023-04-02T08:04:56;100119.36;;;3.64;93.20
41706;BME280;27385;51.096;17.190;2023-04-02T08:07:27;100123.45;;;3.65;93.24
41706;BME280;27385;51.096;17.190;2023-04-02T08:09:58;100127.88;;;3.64;93.16
41706;BME280;27385;51.096;17.190;2023-04-02T08:12:29;100137.30;;;3.63;93.24
41706;BME280;27385;51.096;17.190;2023-04-02T08:15:00;100143.67;;;3.64;93.28
41706;BME280;27385;51.096;17.190;2023-04-02T08:17:31;100151.77;;;3.65;93.29
41706;BME280;27385;51.096;17.190;2023-04-02T08:20:02;100153.63;;;3.69;93.73
41706;BME280;27385;51.096;17.190;2023-04-02T08:22:35;100158.23;;;3.71;93.27
41706;BME280;27385;51.096;17.190;2023-04-02T08:25:08;100157.23;;;3.73;93.09
41706;BME280;27385;51.096;17.190;2023-04-02T08:27:39;100167.64;;;3.76;93.16
41706;BME280;27385;51.096;17.190;2023-04-02T08:30:12;100169.73;;;3.78;92.75
41706;BME280;27385;51.096;17.190;2023-04-02T08:32:43;100173.47;;;3.82;92.95
41706;BME280;27385;51.096;17.190;2023-04-02T08:35:15;100174.03;;;3.84;92.53
41706;BME280;27385;51.096;17.190;2023-04-02T08:37:46;100183.81;;;3.85;92.49
41706;BME280;27385;51.096;17.190;2023-04-02T08:40:24;100185.94;;;3.85;92.58
41706;BME280;27385;51.096;17.190;2023-04-02T08:43:14;100183.98;;;3.87;92.76
41706;BME280;27385;51.096;17.190;2023-04-02T08:45:57;100184.50;;;3.86;91.88
41706;BME280;27385;51.096;17.190;2023-04-02T08:48:32;100186.99;;;3.89;92.71
41706;BME280;27385;51.096;17.190;2023-04-02T08:51:05;100184.17;;;3.95;92.26
41706;BME280;27385;51.096;17.190;2023-04-02T08:53:39;100187.98;;;4.00;92.19
41706;BME280;27385;51.096;17.190;2023-04-02T08:56:16;100192.79;;;4.03;91.65
41706;BME280;27385;51.096;17.190;2023-04-02T08:58:52;100194.80;;;4.04;91.43
41706;BME280;27385;51.096;17.190;2023-04-02T09:01:32;100193.16;;;4.09;91.81
41706;BME280;27385;51.096;17.190;2023-04-02T09:04:14;100195.46;;;4.18;91.72
41706;BME280;27385;51.096;17.190;2023-04-02T09:06:47;100197.80;;;4.27;92.05
41706;BME280;27385;51.096;17.190;2023-04-02T09:09:21;100199.13;;;4.36;91.76
41706;BME280;27385;51.096;17.190;2023-04-02T09:11:55;100198.60;;;4.41;91.27
41706;BME280;27385;51.096;17.190;2023-04-02T09:14:34;100203.74;;;4.44;91.10
41706;BME280;27385;51.096;17.190;2023-04-02T09:17:17;100205.14;;;4.45;90.00
41706;BME280;27385;51.096;17.190;2023-04-02T09:19:55;100207.46;;;4.46;91.04
41706;BME280;27385;51.096;17.190;2023-04-02T09:22:28;100212.76;;;4.51;91.02
41706;BME280;27385;51.096;17.190;2023-04-02T09:25:01;100214.86;;;4.52;90.58
41706;BME280;27385;51.096;17.190;2023-04-02T09:27:34;100219.52;;;4.52;90.44
41706;BME280;27385;51.096;17.190;2023-04-02T09:30:12;100221.91;;;4.49;89.97
41706;BME280;27385;51.096;17.190;2023-04-02T09:32:51;100233.48;;;4.45;90.10
41706;BME280;27385;51.096;17.190;2023-04-02T09:35:24;100234.41;;;4.43;90.17
41706;BME280;27385;51.096;17.190;2023-04-02T09:38:18;100242.73;;;4.41;90.33
41706;BME280;27385;51.096;17.190;2023-04-02T09:40:58;100246.11;;;4.39;89.92
41706;BME280;27385;51.096;17.190;2023-04-02T09:43:31;100257.36;;;4.35;89.69
41706;BME280;27385;51.096;17.190;2023-04-02T09:46:05;100263.04;;;4.32;90.03
41706;BME280;27385;51.096;17.190;2023-04-02T09:48:37;100269.23;;;4.32;89.96
41706;BME280;27385;51.096;17.190;2023-04-02T09:51:15;100269.27;;;4.27;89.40
41706;BME280;27385;51.096;17.190;2023-04-02T09:53:49;100274.08;;;4.24;89.72
41706;BME280;27385;51.096;17.190;2023-04-02T09:56:22;100272.88;;;4.26;90.25
41706;BME280;27385;51.096;17.190;2023-04-02T09:59:05;100281.73;;;4.24;88.76
41706;BME280;27385;51.096;17.190;2023-04-02T10:01:39;100285.37;;;4.22;89.01
41706;BME280;27385;51.096;17.190;2023-04-02T10:04:36;100290.88;;;4.22;89.66
41706;BME280;27385;51.096;17.190;2023-04-02T10:07:35;100298.66;;;4.27;89.75
41706;BME280;27385;51.096;17.190;2023-04-02T10:10:20;100299.17;;;4.28;89.68
41706;BME280;27385;51.096;17.190;2023-04-02T10:12:56;100302.67;;;4.30;89.61
41706;BME280;27385;51.096;17.190;2023-04-02T10:15:32;100303.50;;;4.32;89.17
41706;BME280;27385;51.096;17.190;2023-04-02T10:18:11;100308.85;;;4.32;89.10
41706;BME280;27385;51.096;17.190;2023-04-02T10:20:43;100308.67;;;4.33;89.37
41706;BME280;27385;51.096;17.190;2023-04-02T10:23:17;100313.53;;;4.34;89.58
41706;BME280;27385;51.096;17.190;2023-04-02T10:25:53;100319.59;;;4.35;89.26
41706;BME280;27385;51.096;17.190;2023-04-02T10:28:38;100321.11;;;4.34;89.19
41706;BME280;27385;51.096;17.190;2023-04-02T10:31:17;100326.33;;;4.31;88.55
41706;BME280;27385;51.096;17.190;2023-04-02T10:33:53;100326.55;;;4.29;88.85
41706;BME280;27385;51.096;17.190;2023-04-02T10:36:38;100326.27;;;4.30;89.14
41706;BME280;27385;51.096;17.190;2023-04-02T10:39:15;100327.30;;;4.33;89.22
41706;BME280;27385;51.096;17.190;2023-04-02T10:41:54;100326.81;;;4.34;88.93
41706;BME280;27385;51.096;17.190;2023-04-02T10:44:34;100327.89;;;4.35;88.80
41706;BME280;27385;51.096;17.190;2023-04-02T10:47:18;100328.66;;;4.36;88.57
41706;BME280;27385;51.096;17.190;2023-04-02T10:50:02;100335.08;;;4.38;88.82
41706;BME280;27385;51.096;17.190;2023-04-02T10:52:38;100332.23;;;4.41;88.69
41706;BME280;27385;51.096;17.190;2023-04-02T10:55:17;100329.34;;;4.43;88.52
41706;BME280;27385;51.096;17.190;2023-04-02T10:57:51;100335.58;;;4.43;87.88
41706;BME280;27385;51.096;17.190;2023-04-02T11:00:26;100340.02;;;4.45;87.62
41706;BME280;27385;51.096;17.190;2023-04-02T11:03:00;100343.07;;;4.46;87.27
41706;BME280;27385;51.096;17.190;2023-04-02T11:05:38;100354.34;;;4.47;87.64
41706;BME280;27385;51.096;17.190;2023-04-02T11:08:17;100352.48;;;4.52;88.00
41706;BME280;27385;51.096;17.190;2023-04-02T11:10:54;100359.59;;;4.57;87.93
41706;BME280;27385;51.096;17.190;2023-04-02T11:13:29;100362.14;;;4.62;87.84
41706;BME280;27385;51.096;17.190;2023-04-02T11:16:00;100368.52;;;4.67;87.54
41706;BME280;27385;51.096;17.190;2023-04-02T11:18:33;100372.73;;;4.69;87.17
41706;BME280;27385;51.096;17.190;2023-04-02T11:21:15;100372.95;;;4.66;87.06
41706;BME280;27385;51.096;17.190;2023-04-02T11:24:05;100379.84;;;4.59;86.32
41706;BME280;27385;51.096;17.190;2023-04-02T11:27:05;100383.48;;;4.53;86.26
41706;BME280;27385;51.096;17.190;2023-04-02T11:29:37;100387.77;;;4.49;86.45
41706;BME280;27385;51.096;17.190;2023-04-02T11:32:29;100387.30;;;4.46;86.91
41706;BME280;27385;51.096;17.190;2023-04-02T11:35:25;100398.16;;;4.48;87.00
41706;BME280;27385;51.096;17.190;2023-04-02T11:38:00;100400.25;;;4.49;87.20
41706;BME280;27385;51.096;17.190;2023-04-02T11:40:45;100408.73;;;4.50;86.34
41706;BME280;27385;51.096;17.190;2023-04-02T11:43:48;100403.84;;;4.51;86.34
41706;BME280;27385;51.096;17.190;2023-04-02T11:46:43;100408.38;;;4.52;86.79
41706;BME280;27385;51.096;17.190;2023-04-02T11:49:37;100408.25;;;4.60;87.17
41706;BME280;27385;51.096;17.190;2023-04-02T11:52:24;100409.75;;;4.67;86.40
41706;BME280;27385;51.096;17.190;2023-04-02T11:55:24;100416.33;;;4.71;86.03
41706;BME280;27385;51.096;17.190;2023-04-02T12:03:54;100426.75;;;4.87;85.85
41706;BME280;27385;51.096;17.190;2023-04-02T12:06:39;100429.23;;;4.91;85.37
41706;BME280;27385;51.096;17.190;2023-04-02T12:09:20;100434.64;;;4.90;84.94
41706;BME280;27385;51.096;17.190;2023-04-02T12:11:53;100440.41;;;4.90;84.83
41706;BME280;27385;51.096;17.190;2023-04-02T12:14:44;100444.40;;;4.92;85.42
41706;BME280;27385;51.096;17.190;2023-04-02T12:20:30;100445.26;;;4.89;85.06
41706;BME280;27385;51.096;17.190;2023-04-02T12:23:01;100447.90;;;4.82;84.86
41706;BME280;27385;51.096;17.190;2023-04-02T12:25:34;100450.50;;;4.76;84.74
41706;BME280;27385;51.096;17.190;2023-04-02T12:28:15;100452.36;;;4.71;84.92
41706;BME280;27385;51.096;17.190;2023-04-02T12:30:48;100456.84;;;4.70;85.03
41706;BME280;27385;51.096;17.190;2023-04-02T12:33:29;100457.20;;;4.68;84.98
41706;BME280;27385;51.096;17.190;2023-04-02T12:36:03;100459.44;;;4.64;84.49
41706;BME280;27385;51.096;17.190;2023-04-02T12:38:42;100461.89;;;4.60;84.45
41706;BME280;27385;51.096;17.190;2023-04-02T12:41:22;100469.65;;;4.57;84.56
41706;BME280;27385;51.096;17.190;2023-04-02T12:43:59;100470.19;;;4.54;84.98
41706;BME280;27385;51.096;17.190;2023-04-02T12:46:32;100469.86;;;4.57;85.36
41706;BME280;27385;51.096;17.190;2023-04-02T12:49:07;100472.17;;;4.60;85.27
41706;BME280;27385;51.096;17.190;2023-04-02T12:51:43;100473.33;;;4.62;84.89
41706;BME280;27385;51.096;17.190;2023-04-02T12:54:15;100477.29;;;4.64;84.53
41706;BME280;27385;51.096;17.190;2023-04-02T12:56:48;100482.42;;;4.67;85.04
41706;BME280;27385;51.096;17.190;2023-04-02T12:59:28;100480.98;;;4.71;85.16
41706;BME280;27385;51.096;17.190;2023-04-02T13:02:00;100485.71;;;4.74;84.93
41706;BME280;27385;51.096;17.190;2023-04-02T13:04:32;100487.27;;;4.78;84.92
41706;BME280;27385;51.096;17.190;2023-04-02T13:07:17;100488.71;;;4.81;84.40
41706;BME280;27385;51.096;17.190;2023-04-02T13:09:49;100489.18;;;4.81;84.67
41706;BME280;27385;51.096;17.190;2023-04-02T13:12:32;100488.95;;;4.81;84.24
41706;BME280;27385;51.096;17.190;2023-04-02T13:15:06;100490.53;;;4.81;84.19
41706;BME280;27385;51.096;17.190;2023-04-02T13:17:40;100493.80;;;4.80;83.90
41706;BME280;27385;51.096;17.190;2023-04-02T13:20:30;100504.10;;;4.78;83.78
41706;BME280;27385;51.096;17.190;2023-04-02T13:25:54;100508.19;;;4.76;84.33
41706;BME280;27385;51.096;17.190;2023-04-02T13:28:26;100509.23;;;4.78;84.06
41706;BME280;27385;51.096;17.190;2023-04-02T13:30:57;100499.17;;;4.79;84.27
41706;BME280;27385;51.096;17.190;2023-04-02T13:33:30;100501.36;;;4.83;84.86
41706;BME280;27385;51.096;17.190;2023-04-02T13:36:02;100505.48;;;4.87;84.25
41706;BME280;27385;51.096;17.190;2023-04-02T13:38:32;100504.91;;;4.87;84.12
41706;BME280;27385;51.096;17.190;2023-04-02T13:41:03;100509.77;;;4.88;84.37
41706;BME280;27385;51.096;17.190;2023-04-02T13:43:34;100510.80;;;4.91;83.91
41706;BME280;27385;51.096;17.190;2023-04-02T13:46:06;100513.80;;;4.92;83.98
41706;BME280;27385;51.096;17.190;2023-04-02T13:48:37;100519.41;;;4.95;84.24
41706;BME280;27385;51.096;17.190;2023-04-02T13:51:10;100520.31;;;4.97;83.62
41706;BME280;27385;51.096;17.190;2023-04-02T13:53:44;100521.86;;;4.99;84.14
41706;BME280;27385;51.096;17.190;2023-04-02T13:56:17;100530.88;;;5.02;84.03